Sonic Adventure (DX): Boss Rankings

Records: Times | Rings | Scores | Races | Bosses | Freestyle
Leaders: Times | Rings | Scores | Races | Bosses | Freestyle | Overall
Rank Player Percent Points Date
1 Sonicspeedruner 98.4% 32 09-11-16
2 Gamepro011 97.0% 62 09-11-16
3 Austinf 92.8% 149 09-11-16
4 DarkPolarNight 91.7% 172 09-11-16
5 Jawzun 89.7% 215 09-11-16
6 drminus 89.6% 218 09-11-16
7 Parax 87.6% 258 09-11-16
8 ike6252 87.2% 267 09-11-16
9 Dashjump 85.1% 312 09-11-16
10 Avento128bits 84.7% 320 09-11-16
11 Coolfansonic 81.7% 383 09-11-16
12 DarkspinesSonic 81.3% 392 09-11-16
13 THC98 79.0% 439 09-11-16
14 F-Man 76.9% 483 09-11-16
15 TheRealShadnic 76.5% 492 09-11-16
16 Marth 75.8% 506 09-11-16
17 yoshifan 74.1% 542 09-11-16
18 Mariobutch 74.0% 545 09-11-16
19 PfoSonic 72.8% 569 09-11-16
20 InferSaime 72.4% 577 09-11-16
21 HyperSonic7701 70.6% 616 09-11-16
22 RPGnutter 69.7% 635 09-11-16
23 Paragod 68.1% 667 09-11-16
24 mike89 67.7% 677 09-11-16
25 frankoredstrato 67.5% 681 09-11-16
26 Groudon199 63.3% 769 09-11-16
27 sonicam 63.2% 770 09-11-16
28 SadisticMystic 63.0% 775 09-11-16
29 xXMegaManXx 62.3% 789 09-11-16
30 Stefan 61.4% 808 09-11-16
31 Diamond 60.4% 830 09-11-16
32 Combo 57.8% 883 09-11-16
33 bertin 57.6% 888 09-11-16
34 SkyLights 54.8% 946 09-11-16
35 francisco 49.2% 1065 09-11-16
36 Arch 49.1% 1066 09-11-16
37 Fr3nZy 49.1% 1067 09-11-16
38 OmegaDJ 47.1% 1108 09-11-16
39 Andrea Ritsu 46.8% 1114 09-11-16
40 Omega Rafael Santos 45.7% 1137 09-11-16
41 P1 Pause 44.5% 1163 09-11-16
42 magnum12 42.2% 1212 09-11-16
43 VeritasDL 41.5% 1226 09-11-16
44 Auriman1 38.3% 1292 09-11-16
45 James_Bertolli 35.9% 1343 09-11-16
46 teamblackarms 34.4% 1374 09-11-16
47 Hunters13 34.1% 1380 09-11-16
48 FuzZerd 33.4% 1396 09-11-16
49 Drakodan 33.1% 1401 09-11-16
50 Psymar 32.4% 1416 09-11-16
51 Quartz 32.1% 1422 09-11-16
52 eggFL 31.9% 1427 09-11-16
53 Cyan Ryan 31.6% 1433 09-11-16
54 Jerzia 30.9% 1447 09-11-16
55 GerbilSoft 30.9% 1449 09-11-16
56 elecmouse101 30.4% 1459 09-11-16
57 Thorn 30.1% 1465 09-11-16
58 Webber3000 29.9% 1469 09-11-16
59 videogamemaster777 29.7% 1473 09-11-16
60 Mo Player Banned 28.3% 1502 09-11-16
60 Turbos 28.3% 1502 09-11-16
62 Termon 27.1% 1527 09-11-16
63 Nimrod 26.6% 1538 09-11-16
64 Dave Cramer 26.1% 1548 09-11-16
65 Flying Fox 26.0% 1551 09-11-16
66 nuckrieg 25.1% 1570 09-11-16
67 buddychaos0415 25.0% 1571 09-11-16
68 Shadow Jacky 23.9% 1594 09-11-16
69 Cream147 21.5% 1646 09-11-16
70 supersonicfan 21.3% 1650 09-11-16
71 MiStEr_ShAoLiN 20.9% 1658 09-11-16
72 NintenDan 20.8% 1659 09-11-16
73 thewaytodawnnn 20.8% 1660 09-11-16
74 Aitamen 20.6% 1664 09-11-16
75 itsPersonnal 20.5% 1667 09-11-16
76 The T 20.3% 1670 09-11-16
77 supersonic465 20.0% 1676 09-11-16
78 Cybrax 20.0% 1677 09-11-16
79 SonicWinDX 19.5% 1688 09-11-16
80 Cruizer 18.9% 1700 09-11-16
81 VMU Player Banned 17.7% 1725 09-11-16
82 Game_Complete 17.2% 1735 09-11-16
83 The Great Lord Mick 16.6% 1747 09-11-16
84 Questionguy555 15.9% 1763 09-11-16
85 GreatStar 15.8% 1764 09-11-16
86 Spinballwizard 15.3% 1776 09-11-16
87 Sondow 14.5% 1791 09-11-16
88 sonicandamy Player Banned 14.2% 1799 09-11-16
89 Destroyer121121 13.9% 1804 09-11-16
90 GarnetPrincess 13.4% 1815 09-11-16
91 SonicAD 12.0% 1844 09-11-16
92 Don 11.3% 1858 09-11-16
93 Miles9999 11.2% 1862 09-11-16
94 SuperBlitzCraig 11.0% 1866 09-11-16
95 Siavash Tazari 10.9% 1868 09-11-16
96 BigAL49 10.3% 1880 09-11-16
96 Cutiefox 10.3% 1880 09-11-16
98 Psyknux 10.1% 1884 09-11-16
99 knuckles_sonic8 9.7% 1893 09-11-16
99 Werey 9.7% 1893 09-11-16
101 joecoolgames 9.5% 1896 09-11-16
102 mauserman 9.2% 1904 09-11-16
103 Badlex727 9.0% 1908 09-11-16
104 EngiNerd 8.9% 1909 09-11-16
105 Sonic Singularity 8.6% 1915 09-11-16
106 dShadow 8.5% 1918 09-11-16
107 Hipertails12 8.3% 1921 09-11-16
108 Aiko 8.1% 1927 09-11-16
109 Shanekilz 8.0% 1929 09-11-16
110 Therio 7.6% 1937 09-11-16
111 Mastakirby 7.4% 1941 09-11-16
112 TommyeAsY 7.0% 1949 09-11-16
113 chainchumper 6.9% 1951 09-11-16
114 FocusSight64 6.8% 1953 09-11-16
115 TheChaosEmeraIds 6.8% 1954 09-11-16
116 sonic29887 6.7% 1955 09-11-16
117 Chao_Fan 6.6% 1958 09-11-16
118 djmat 6.0% 1971 09-11-16
118 HHNNBBHHN 6.0% 1971 09-11-16
120 tal39h 5.9% 1972 09-11-16
121 paulie9990 5.7% 1976 09-11-16
122 Sogeking 5.4% 1983 09-11-16
123 Brian_pso 5.0% 1992 09-11-16
124 Chawkk 4.9% 1993 09-11-16
125 SilvertheAlmighty 4.6% 2000 09-11-16
126 MK 4.5% 2002 09-11-16
126 SpinDashMaster 4.5% 2002 09-11-16
128 MastaToken 4.1% 2010 09-11-16
129 Sonique Hedgehog 3.8% 2017 09-11-16
129 SpiritDragon1995 3.8% 2017 09-11-16
131 KinkyCadence 3.5% 2022 09-11-16
132 Mad Andy 3.4% 2025 09-11-16
132 PsyBorg 3.4% 2025 09-11-16
134 FSSRandomvids 3.2% 2028 09-11-16
135 koinu93 2.9% 2035 09-11-16
135 Rolken 2.9% 2035 09-11-16
137 Xia 2.8% 2037 09-11-16
138 andres430 2.6% 2042 09-11-16
139 dabestgamer 2.2% 2049 09-11-16
140 shadowblast63 Player Banned 2.2% 2050 09-11-16
141 crazy1993 2.1% 2051 09-11-16
142 Illidan 2.0% 2054 09-11-16
143 Richied 2.0% 2055 09-11-16
144 DanielTheFalcon 1.8% 2059 09-11-16
144 gamer1245 1.8% 2059 09-11-16
146 Iwannabelink 1.7% 2061 09-11-16
147 oTaiIilLsS 1.4% 2067 09-11-16
148 niscool 1.3% 2069 09-11-16
148 soniccoloursunleashed 1.3% 2069 09-11-16
150 Redd 1.1% 2073 09-11-16
151 ieatatsonic 1.0% 2074 09-11-16
152 LinksDarkArrows 0.8% 2079 09-11-16
153 Lil_Dude 0.8% 2080 09-11-16
154 Cbwade15 0.4% 2087 09-11-16
155 neaolas 0.3% 2089 09-11-16
156 BlankTH 0.2% 2092 09-11-16
157 Heroes_Hater 0.1% 2093 09-11-16
158 S-MS32X-S 0.0% 2095 09-11-16
159 KaM Mark MaK 0.0% 2097 09-11-16
159 MegabombBlade 0.0% 2097 09-11-16

This page is using the New Data Table System. [FUTURE]

Game ID: 3 | Category ID: 6
Hits: 4,390 | Hits This Month: 20 | DB Calls: 24 | Mem Usage: 5.35 MB | Time: 0.33s | Printable

The Sonic Center v3.9
Copyright 2003-2011 by The Sonic Center Team.